Fuquay Varina, North Carolina
Current Conditions -  °F | °C
As of 7:55 PM on Wednesday 22 Oct 2014 (Local Time) from KHRJ Reporting Station
Clear Clear  
Wind Chill: 56°   Ceiling: Unl
Heat Index: 56°   Visibility: 10mi
Dew Point: 44°   Wind: 3mph
Humidity: 63%   Direction: 290°WNW
Pressure: 30"   Gusts: NA
Location:  35.59°N, 78.78°W
Report Text: KHRJ 222355Z AUTO 29003KT 10SM CLR 13/07 A3000 RMK AO2 T01330065 10200 20132
Loading
Personal Weather Stations






























Interactive Weather Map
Tropical Storm Tracking
New forecast layout! Learn more

10-Day Weather Forecast

Advertisements
Track Severe Weather on mobile